Time;durP1;ratioP1;P1;durP2;ratioP2;P2;SDS_P1;SDS_P2;PMS_P1;PMS_P2;Temp;Humidity;BMP_temperature;BMP_pressure;BME280_temperature;BME280_humidity;BME280_pressure;Samples;Min_cycle;Max_cycle;Signal;HPM_P1;HPM_P2
2024/02/29 00:00:54;;;;;;;24.60;14.03;;;7.40;99.90;;;;;;5014253;28;20230;-61
2024/02/29 00:03:22;;;;;;;28.70;14.40;;;7.40;99.90;;;;;;5020736;28;20220;-61
2024/02/29 00:05:50;;;;;;;35.07;15.17;;;7.40;99.90;;;;;;5022305;28;20279;-60
2024/02/29 00:08:19;;;;;;;25.37;13.77;;;7.40;99.90;;;;;;5017928;28;20233;-61
2024/02/29 00:10:47;;;;;;;28.57;14.80;;;7.40;99.90;;;;;;5012636;28;20214;-61
2024/02/29 00:13:15;;;;;;;25.53;13.80;;;7.50;99.90;;;;;;5014408;28;20226;-61
2024/02/29 00:15:45;;;;;;;26.87;14.27;;;7.40;99.90;;;;;;5018443;28;20217;-61
2024/02/29 00:18:13;;;;;;;24.70;14.33;;;7.40;99.90;;;;;;5019727;28;20288;-61
2024/02/29 00:20:42;;;;;;;31.17;14.87;;;7.50;99.90;;;;;;5019826;28;20217;-61
2024/02/29 00:23:10;;;;;;;25.77;13.07;;;7.50;99.90;;;;;;5015573;28;20652;-61
2024/02/29 00:25:38;;;;;;;23.23;13.43;;;7.50;99.90;;;;;;5021692;28;20771;-61
2024/02/29 00:28:06;;;;;;;24.30;13.67;;;7.50;99.90;;;;;;5024661;28;20229;-60
2024/02/29 00:30:35;;;;;;;26.00;13.77;;;7.50;99.90;;;;;;5015217;28;20214;-61
2024/02/29 00:33:05;;;;;;;27.40;13.63;;;7.50;99.90;;;;;;5017155;28;20723;-61
2024/02/29 00:35:33;;;;;;;27.20;13.57;;;7.50;99.90;;;;;;5019544;28;20238;-61
2024/02/29 00:38:01;;;;;;;22.10;13.50;;;7.60;99.90;;;;;;5018482;28;20194;-61
2024/02/29 00:40:30;;;;;;;23.63;13.67;;;7.50;99.90;;;;;;5019342;28;20244;-61
2024/02/29 00:42:58;;;;;;;24.03;13.37;;;7.60;99.90;;;;;;5012602;28;20249;-61
2024/02/29 00:45:26;;;;;;;21.97;13.47;;;7.60;99.90;;;;;;5015551;28;22078;-60
2024/02/29 00:47:55;;;;;;;24.07;13.30;;;7.60;99.90;;;;;;5024713;28;20249;-60
2024/02/29 00:50:25;;;;;;;18.97;12.63;;;7.70;99.90;;;;;;5011371;28;20317;-61
2024/02/29 00:52:53;;;;;;;16.83;12.13;;;7.70;99.90;;;;;;5014019;28;20237;-60
2024/02/29 00:55:22;;;;;;;23.30;13.07;;;7.70;99.90;;;;;;5017981;28;20218;-60
2024/02/29 00:57:51;;;;;;;22.83;12.13;;;7.70;99.90;;;;;;5020114;28;20209;-60
2024/02/29 01:00:20;;;;;;;30.73;12.97;;;7.70;99.90;;;;;;5013560;28;20225;-61
2024/02/29 01:02:48;;;;;;;20.33;12.23;;;7.70;99.90;;;;;;5017712;28;20233;-61
2024/02/29 01:05:16;;;;;;;17.73;11.77;;;7.80;99.90;;;;;;5017332;28;20522;-61
2024/02/29 01:07:46;;;;;;;20.73;11.93;;;7.80;99.90;;;;;;5015449;28;20246;-60
2024/02/29 01:10:14;;;;;;;19.07;12.13;;;7.80;99.90;;;;;;5014061;28;20214;-60
2024/02/29 01:12:43;;;;;;;23.37;12.13;;;7.80;99.90;;;;;;5016490;28;20237;-61
2024/02/29 01:15:13;;;;;;;20.17;12.10;;;7.90;99.90;;;;;;5022243;28;20312;-61
2024/02/29 01:17:42;;;;;;;19.77;11.50;;;7.90;99.90;;;;;;5018769;28;20222;-61
2024/02/29 01:20:11;;;;;;;18.77;12.00;;;7.90;99.90;;;;;;5021807;28;20218;-60
2024/02/29 01:22:40;;;;;;;20.27;11.97;;;7.90;99.90;;;;;;5013309;28;20279;-61
2024/02/29 01:25:11;;;;;;;19.53;11.30;;;7.90;99.90;;;;;;5019199;28;20220;-60
2024/02/29 01:27:40;;;;;;;20.10;11.60;;;7.90;99.90;;;;;;5019866;28;20210;-61
2024/02/29 01:30:09;;;;;;;21.83;11.13;;;7.90;99.90;;;;;;5016696;28;20273;-60
2024/02/29 01:32:37;;;;;;;18.70;11.30;;;7.90;99.90;;;;;;5013639;28;20236;-60
2024/02/29 01:35:06;;;;;;;15.90;10.33;;;7.90;99.90;;;;;;5017217;28;20221;-60
2024/02/29 01:37:34;;;;;;;17.87;11.03;;;8.00;99.90;;;;;;5000345;28;20222;-60
2024/02/29 01:40:04;;;;;;;16.43;10.47;;;8.00;99.90;;;;;;4998565;28;20222;-60
2024/02/29 01:42:33;;;;;;;16.67;10.97;;;8.00;99.90;;;;;;4997022;28;20249;-60
2024/02/29 01:45:02;;;;;;;18.37;10.13;;;8.00;99.90;;;;;;5004334;28;20282;-61
2024/02/29 01:47:30;;;;;;;16.07;9.83;;;8.10;99.90;;;;;;5019792;28;20541;-60
2024/02/29 01:50:02;;;;;;;19.80;10.10;;;8.00;99.90;;;;;;5018978;28;20194;-61
2024/02/29 01:52:33;;;;;;;15.33;9.87;;;8.00;99.90;;;;;;5022862;28;20268;-60
2024/02/29 01:55:03;;;;;;;15.53;9.73;;;8.00;99.90;;;;;;5018217;28;20546;-60
2024/02/29 01:57:33;;;;;;;16.80;10.13;;;8.00;99.90;;;;;;5014969;28;20228;-61
2024/02/29 02:00:04;;;;;;;19.10;10.80;;;7.90;99.90;;;;;;5013726;28;20624;-60
2024/02/29 02:02:32;;;;;;;15.13;9.60;;;7.90;99.90;;;;;;5019370;28;20549;-61
2024/02/29 02:05:01;;;;;;;19.30;10.23;;;8.00;99.90;;;;;;5017571;28;20191;-60
2024/02/29 02:07:29;;;;;;;14.73;10.10;;;8.00;99.90;;;;;;5012326;28;20294;-61
2024/02/29 02:09:57;;;;;;;18.60;9.90;;;8.00;99.90;;;;;;5017595;28;20712;-61
2024/02/29 02:12:26;;;;;;;14.07;9.83;;;8.00;99.90;;;;;;5018428;28;20224;-60
2024/02/29 02:14:56;;;;;;;16.67;9.93;;;8.00;99.90;;;;;;5012333;28;20230;-61
2024/02/29 02:17:24;;;;;;;13.53;9.57;;;7.90;99.90;;;;;;5016692;28;20190;-62
2024/02/29 02:19:53;;;;;;;13.87;9.37;;;7.90;99.90;;;;;;5018190;28;21892;-61
2024/02/29 02:22:23;;;;;;;12.60;9.43;;;7.90;99.90;;;;;;5011180;28;20217;-61
2024/02/29 02:24:51;;;;;;;10.03;8.57;;;8.00;99.90;;;;;;5013900;28;20225;-61
2024/02/29 02:27:19;;;;;;;15.60;9.30;;;7.90;99.90;;;;;;5006554;28;20230;-61
2024/02/29 02:29:47;;;;;;;19.27;9.67;;;7.90;99.90;;;;;;4990293;28;20218;-61
2024/02/29 02:32:15;;;;;;;15.37;9.27;;;8.00;99.90;;;;;;5023338;28;20210;-60
2024/02/29 02:34:43;;;;;;;13.23;9.40;;;7.90;99.90;;;;;;4991305;28;20245;-61
2024/02/29 02:37:11;;;;;;;13.90;8.53;;;7.90;99.90;;;;;;4991344;28;20297;-61
2024/02/29 02:39:41;;;;;;;13.77;9.07;;;8.00;99.90;;;;;;4994514;28;20242;-61
2024/02/29 02:42:10;;;;;;;10.70;8.53;;;8.00;99.90;;;;;;4999654;28;20317;-61
2024/02/29 02:44:38;;;;;;;11.73;8.40;;;7.90;99.90;;;;;;5005424;28;20191;-61
2024/02/29 02:47:06;;;;;;;11.87;9.27;;;7.90;99.90;;;;;;4992045;28;20190;-60
2024/02/29 02:49:34;;;;;;;12.80;9.00;;;7.90;99.90;;;;;;4995385;28;20223;-61
2024/02/29 02:52:02;;;;;;;17.23;8.67;;;8.00;99.90;;;;;;5012368;28;20223;-61
2024/02/29 02:54:31;;;;;;;12.10;8.63;;;8.00;99.90;;;;;;5013144;28;20713;-60
2024/02/29 02:57:00;;;;;;;12.33;8.73;;;8.00;99.90;;;;;;5014258;28;20222;-61
2024/02/29 02:59:31;;;;;;;11.53;8.30;;;8.00;99.90;;;;;;5012662;28;20190;-61
2024/02/29 03:01:59;;;;;;;14.93;8.70;;;8.00;99.90;;;;;;5017393;28;20212;-61
2024/02/29 03:04:27;;;;;;;11.87;8.40;;;7.90;99.90;;;;;;5010267;28;20222;-61
2024/02/29 03:06:55;;;;;;;13.53;8.80;;;7.90;99.90;;;;;;5019037;28;20637;-61
2024/02/29 03:09:24;;;;;;;16.40;8.47;;;7.90;99.90;;;;;;5013460;28;20222;-61
2024/02/29 03:11:52;;;;;;;13.10;8.50;;;7.90;99.90;;;;;;5008954;28;20233;-61
2024/02/29 03:14:22;;;;;;;13.63;8.33;;;7.90;99.90;;;;;;5017623;28;20554;-61
2024/02/29 03:16:50;;;;;;;12.63;8.73;;;7.90;99.90;;;;;;5017842;28;20797;-61
2024/02/29 03:19:18;;;;;;;11.57;8.80;;;7.90;99.90;;;;;;5013696;28;20233;-61
2024/02/29 03:21:46;;;;;;;12.90;9.03;;;7.90;99.90;;;;;;5011848;28;20225;-61
2024/02/29 03:24:15;;;;;;;15.47;9.70;;;7.90;99.90;;;;;;5009714;28;20214;-61
2024/02/29 03:26:43;;;;;;;16.53;9.53;;;7.80;99.90;;;;;;5013447;28;20301;-61
2024/02/29 03:29:12;;;;;;;11.37;9.03;;;7.80;99.90;;;;;;5011627;28;20194;-61
2024/02/29 03:31:44;;;;;;;16.83;10.00;;;7.80;99.90;;;;;;5017974;28;20260;-61
2024/02/29 03:34:12;;;;;;;15.27;9.60;;;7.80;99.90;;;;;;5018280;28;20269;-61
2024/02/29 03:36:41;;;;;;;15.43;9.83;;;7.80;99.90;;;;;;5018575;28;20217;-61
2024/02/29 03:39:10;;;;;;;17.70;10.10;;;7.80;99.90;;;;;;5011135;28;20218;-61
2024/02/29 03:41:38;;;;;;;17.67;10.33;;;7.80;99.90;;;;;;4999171;28;20199;-61
2024/02/29 03:44:06;;;;;;;18.90;9.97;;;7.80;99.90;;;;;;5003653;28;20225;-62
2024/02/29 03:46:34;;;;;;;12.63;9.10;;;7.80;99.90;;;;;;4998651;28;20223;-61
2024/02/29 03:49:04;;;;;;;20.60;10.73;;;7.80;99.90;;;;;;4999604;28;20214;-61
2024/02/29 03:51:34;;;;;;;16.77;10.20;;;7.80;99.90;;;;;;5005247;28;20230;-60
2024/02/29 03:54:03;;;;;;;17.23;10.00;;;7.80;99.90;;;;;;5005339;28;20223;-61
2024/02/29 03:56:31;;;;;;;14.23;10.30;;;7.80;99.90;;;;;;4999645;28;20245;-62
2024/02/29 03:58:59;;;;;;;18.07;10.37;;;7.80;99.90;;;;;;5000653;28;20217;-61
2024/02/29 04:01:27;;;;;;;16.80;10.17;;;7.70;99.90;;;;;;5004463;28;20218;-61
2024/02/29 04:03:56;;;;;;;18.53;10.23;;;7.70;99.90;;;;;;5020463;28;20217;-61
2024/02/29 04:06:25;;;;;;;16.73;10.23;;;7.70;99.90;;;;;;5019252;28;20218;-61
2024/02/29 04:08:54;;;;;;;19.03;10.00;;;7.70;99.90;;;;;;5019295;28;20226;-60
2024/02/29 04:11:23;;;;;;;16.13;10.27;;;7.70;99.90;;;;;;5016945;28;20202;-61
2024/02/29 04:13:53;;;;;;;17.03;9.87;;;7.70;99.90;;;;;;5017242;28;20190;-61
2024/02/29 04:16:22;;;;;;;17.90;10.43;;;7.70;99.90;;;;;;5019649;28;20229;-61
2024/02/29 04:18:50;;;;;;;18.63;10.40;;;7.70;99.90;;;;;;5019637;28;20687;-61
2024/02/29 04:21:19;;;;;;;14.97;10.47;;;7.70;99.90;;;;;;5017923;28;20234;-60
2024/02/29 04:23:48;;;;;;;16.73;9.73;;;7.70;99.90;;;;;;5017539;28;20218;-61
2024/02/29 04:26:18;;;;;;;17.10;10.10;;;7.80;99.90;;;;;;5020162;28;20657;-61
2024/02/29 04:28:46;;;;;;;18.43;11.23;;;7.80;99.90;;;;;;5015291;28;20562;-61
2024/02/29 04:31:14;;;;;;;14.60;9.77;;;7.80;99.90;;;;;;5020388;28;20271;-60
2024/02/29 04:33:44;;;;;;;14.27;9.93;;;7.80;99.90;;;;;;5022171;28;20312;-61
2024/02/29 04:36:12;;;;;;;17.73;9.87;;;7.80;99.90;;;;;;5021805;28;20236;-61
2024/02/29 04:38:40;;;;;;;20.00;10.43;;;7.80;99.90;;;;;;5018846;28;20233;-61
2024/02/29 04:41:10;;;;;;;15.63;9.73;;;7.80;99.90;;;;;;5021544;28;20196;-61
2024/02/29 04:43:38;;;;;;;21.60;10.87;;;7.80;99.90;;;;;;5017745;28;20226;-61
2024/02/29 04:46:06;;;;;;;15.93;10.20;;;7.90;99.90;;;;;;5013205;28;20685;-61
2024/02/29 04:48:34;;;;;;;17.80;10.87;;;7.90;99.90;;;;;;5016712;28;20214;-61
2024/02/29 04:51:04;;;;;;;19.73;10.63;;;7.90;99.90;;;;;;5024652;28;20283;-61
2024/02/29 04:53:33;;;;;;;17.63;10.80;;;7.90;99.90;;;;;;5018600;28;20656;-62
2024/02/29 04:56:01;;;;;;;19.43;10.70;;;7.80;99.90;;;;;;5019351;28;20228;-61
2024/02/29 04:58:31;;;;;;;16.50;10.60;;;7.80;99.90;;;;;;5014995;28;20218;-61
2024/02/29 05:00:59;;;;;;;18.63;10.17;;;7.80;99.90;;;;;;5021606;28;20213;-62
2024/02/29 05:03:29;;;;;;;16.00;10.67;;;7.80;99.90;;;;;;5015965;28;20214;-61
2024/02/29 05:05:57;;;;;;;15.57;9.80;;;7.80;99.90;;;;;;5019326;28;20780;-61
2024/02/29 05:08:26;;;;;;;14.23;10.30;;;7.80;99.90;;;;;;5016024;28;20229;-61
2024/02/29 05:10:54;;;;;;;17.47;10.43;;;7.80;99.90;;;;;;5011484;28;20555;-61
2024/02/29 05:13:22;;;;;;;21.47;11.23;;;7.80;99.90;;;;;;5020117;28;20244;-61
2024/02/29 05:15:52;;;;;;;14.67;9.40;;;7.80;99.90;;;;;;5018839;28;20592;-61
2024/02/29 05:18:20;;;;;;;17.53;9.87;;;7.80;99.90;;;;;;5009911;28;20308;-61
2024/02/29 05:20:48;;;;;;;17.30;10.27;;;7.80;99.90;;;;;;5017964;28;20245;-61
2024/02/29 05:23:16;;;;;;;21.03;11.00;;;7.80;99.90;;;;;;5011863;28;20289;-61
2024/02/29 05:25:45;;;;;;;17.10;10.50;;;7.80;99.90;;;;;;5021867;28;20672;-61
2024/02/29 05:28:13;;;;;;;14.73;10.07;;;7.80;99.90;;;;;;5016540;28;20226;-61
2024/02/29 05:30:41;;;;;;;16.43;9.90;;;7.80;99.90;;;;;;5019181;28;20213;-61
2024/02/29 05:33:11;;;;;;;17.67;10.00;;;7.80;99.90;;;;;;5018093;28;20222;-61
2024/02/29 05:35:40;;;;;;;16.77;10.37;;;7.80;99.90;;;;;;5016561;28;20787;-61
2024/02/29 05:38:08;;;;;;;15.87;10.50;;;7.80;99.90;;;;;;5017325;28;20206;-61
2024/02/29 05:40:36;;;;;;;20.27;11.33;;;7.70;99.90;;;;;;5016911;28;20272;-61
2024/02/29 05:43:05;;;;;;;19.07;11.47;;;7.70;99.90;;;;;;5016575;28;20608;-61
2024/02/29 05:45:33;;;;;;;19.03;11.47;;;7.70;99.90;;;;;;5017936;28;20217;-61
2024/02/29 05:48:01;;;;;;;20.63;11.30;;;7.70;99.90;;;;;;5012841;28;20225;-61
2024/02/29 05:50:31;;;;;;;20.13;10.93;;;7.70;99.90;;;;;;5018311;28;20190;-61
2024/02/29 05:53:01;;;;;;;19.57;11.00;;;7.70;99.90;;;;;;5019403;28;20198;-62
2024/02/29 05:55:33;;;;;;;15.50;10.77;;;7.70;99.90;;;;;;5010934;28;20217;-61
2024/02/29 05:58:01;;;;;;;19.07;11.13;;;7.70;99.90;;;;;;5019353;28;20222;-61
2024/02/29 06:00:30;;;;;;;19.03;12.07;;;7.70;99.90;;;;;;5015467;28;20336;-61
2024/02/29 06:02:58;;;;;;;22.60;12.30;;;7.60;99.90;;;;;;5014689;28;20225;-61
2024/02/29 06:05:27;;;;;;;21.13;12.27;;;7.60;99.90;;;;;;5017207;28;20198;-62
2024/02/29 06:07:59;;;;;;;22.33;13.03;;;7.60;99.90;;;;;;5011388;28;20230;-60
2024/02/29 06:10:27;;;;;;;25.07;13.00;;;7.50;99.90;;;;;;5014909;28;20620;-61
2024/02/29 06:12:56;;;;;;;24.67;12.73;;;7.50;99.90;;;;;;5018221;28;20225;-60
2024/02/29 06:15:24;;;;;;;20.00;12.57;;;7.50;99.90;;;;;;5017666;28;20229;-60
2024/02/29 06:17:56;;;;;;;23.47;12.80;;;7.50;99.90;;;;;;5012995;28;20229;-61
2024/02/29 06:20:24;;;;;;;24.73;12.03;;;7.60;99.90;;;;;;5012358;28;20190;-60
2024/02/29 06:22:52;;;;;;;20.07;12.37;;;7.60;99.90;;;;;;5009929;28;20206;-60
2024/02/29 06:25:22;;;;;;;21.30;12.50;;;7.60;99.90;;;;;;5016176;28;20222;-61
2024/02/29 06:27:50;;;;;;;22.90;11.90;;;7.50;99.90;;;;;;5017695;28;20214;-60
2024/02/29 06:30:19;;;;;;;19.10;12.20;;;7.50;99.90;;;;;;5014635;28;20224;-60
2024/02/29 06:32:48;;;;;;;23.47;13.00;;;7.60;99.90;;;;;;5016779;28;20741;-60
2024/02/29 06:35:16;;;;;;;23.17;12.47;;;7.50;99.90;;;;;;5015513;28;20201;-60
2024/02/29 06:37:45;;;;;;;20.10;12.13;;;7.50;99.90;;;;;;5015464;28;20228;-61
2024/02/29 06:40:14;;;;;;;20.83;12.57;;;7.50;99.90;;;;;;5013851;28;20233;-60
2024/02/29 06:42:44;;;;;;;23.93;13.67;;;7.50;99.90;;;;;;5014579;28;20275;-61
2024/02/29 06:45:12;;;;;;;29.00;13.20;;;7.50;99.90;;;;;;5013667;28;20220;-60
2024/02/29 06:47:41;;;;;;;23.60;13.40;;;7.50;99.90;;;;;;5014069;28;20253;-61
2024/02/29 06:50:10;;;;;;;28.33;14.00;;;7.50;99.90;;;;;;5011610;28;20229;-61
2024/02/29 06:52:39;;;;;;;26.87;13.80;;;7.50;99.90;;;;;;5014850;28;20221;-60
2024/02/29 06:55:08;;;;;;;25.40;13.37;;;7.40;99.90;;;;;;5011441;28;20217;-60
2024/02/29 06:57:36;;;;;;;23.60;13.73;;;7.40;99.90;;;;;;5019242;28;20222;-60
2024/02/29 07:00:08;;;;;;;24.33;13.47;;;7.40;99.90;;;;;;5006392;28;20234;-60
2024/02/29 07:02:37;;;;;;;24.77;13.30;;;7.40;99.90;;;;;;4993186;28;20196;-61
2024/02/29 07:05:07;;;;;;;24.07;14.03;;;7.40;99.90;;;;;;5000535;28;20202;-60
2024/02/29 07:07:35;;;;;;;24.47;13.40;;;7.40;99.90;;;;;;4999095;28;20712;-60
2024/02/29 07:10:06;;;;;;;26.53;13.57;;;7.40;99.90;;;;;;4994880;28;20222;-61
2024/02/29 07:12:34;;;;;;;21.77;13.83;;;7.40;99.90;;;;;;4995789;28;20323;-61
2024/02/29 07:15:02;;;;;;;25.27;13.33;;;7.50;99.90;;;;;;4991035;28;20226;-61
2024/02/29 07:17:32;;;;;;;28.90;14.20;;;7.50;99.90;;;;;;4996544;28;20726;-60
2024/02/29 07:20:00;;;;;;;22.37;13.10;;;7.50;99.90;;;;;;4994480;28;20602;-61
2024/02/29 07:22:28;;;;;;;26.10;13.23;;;7.50;99.90;;;;;;4991590;28;20223;-61
2024/02/29 07:24:57;;;;;;;22.20;12.93;;;7.50;99.90;;;;;;4991225;28;20245;-60
2024/02/29 07:27:25;;;;;;;20.90;13.03;;;7.50;99.90;;;;;;4994027;28;20221;-61
2024/02/29 07:29:53;;;;;;;22.47;12.67;;;7.50;99.90;;;;;;4990351;28;20321;-60
2024/02/29 07:32:22;;;;;;;18.40;12.37;;;7.50;99.90;;;;;;4996222;28;20190;-61
2024/02/29 07:34:51;;;;;;;24.13;12.73;;;7.60;99.90;;;;;;4987302;28;20297;-61
2024/02/29 07:37:19;;;;;;;24.23;13.73;;;7.60;99.90;;;;;;4992025;28;20753;-60
2024/02/29 07:39:48;;;;;;;24.47;13.20;;;7.60;99.90;;;;;;4996192;28;20293;-60
2024/02/29 07:42:17;;;;;;;28.43;12.60;;;7.60;99.90;;;;;;4985441;28;20276;-61
2024/02/29 07:44:45;;;;;;;25.40;13.27;;;7.60;99.90;;;;;;4987638;28;20263;-61
2024/02/29 07:47:13;;;;;;;21.80;12.83;;;7.70;99.90;;;;;;5005662;28;20194;-60
2024/02/29 07:49:42;;;;;;;22.17;12.80;;;7.70;99.90;;;;;;4992472;28;20219;-61
2024/02/29 07:52:11;;;;;;;23.57;12.43;;;7.80;99.90;;;;;;4990746;28;20257;-61
2024/02/29 07:54:39;;;;;;;21.00;11.93;;;7.80;99.90;;;;;;4998743;28;20226;-60
2024/02/29 07:57:08;;;;;;;19.83;12.37;;;7.90;99.90;;;;;;4990278;28;20297;-60
2024/02/29 07:59:36;;;;;;;19.33;12.43;;;7.90;99.90;;;;;;4992495;28;20214;-60
2024/02/29 08:02:05;;;;;;;19.77;12.47;;;7.90;99.90;;;;;;5008634;28;20195;-60
2024/02/29 08:04:34;;;;;;;20.23;12.03;;;8.00;99.90;;;;;;5015147;28;20240;-60
2024/02/29 08:07:03;;;;;;;20.13;10.63;;;8.00;99.90;;;;;;5006241;28;20230;-61
2024/02/29 08:09:34;;;;;;;18.17;11.83;;;8.00;99.90;;;;;;5012813;28;20213;-60
2024/02/29 08:12:03;;;;;;;22.27;11.03;;;8.00;99.90;;;;;;5024532;28;20346;-60
2024/02/29 08:14:32;;;;;;;18.53;11.10;;;8.00;99.90;;;;;;5009181;28;20196;-60
2024/02/29 08:17:00;;;;;;;19.53;10.90;;;8.10;99.90;;;;;;5011235;28;20214;-60
2024/02/29 08:19:28;;;;;;;22.13;10.53;;;8.10;99.90;;;;;;5007822;28;20214;-60
2024/02/29 08:21:57;;;;;;;21.57;11.97;;;8.20;99.90;;;;;;4998042;28;20218;-59
2024/02/29 08:24:25;;;;;;;19.07;10.33;;;8.30;99.90;;;;;;4991207;28;20313;-59
2024/02/29 08:26:55;;;;;;;15.60;10.13;;;8.30;99.90;;;;;;4992668;28;20222;-60
2024/02/29 08:29:23;;;;;;;19.00;10.73;;;8.30;99.90;;;;;;4991334;28;20636;-60
2024/02/29 08:31:51;;;;;;;18.27;10.97;;;8.30;99.90;;;;;;4989213;28;20197;-60
2024/02/29 08:34:19;;;;;;;19.90;10.17;;;8.30;99.90;;;;;;4993835;28;20226;-60
2024/02/29 08:36:49;;;;;;;19.23;10.83;;;8.30;99.90;;;;;;4992642;28;20261;-60
2024/02/29 08:39:18;;;;;;;14.03;10.30;;;8.20;99.90;;;;;;4994550;28;20225;-60
2024/02/29 08:41:47;;;;;;;16.90;10.67;;;8.20;99.90;;;;;;4994738;28;20225;-60
2024/02/29 08:44:17;;;;;;;19.63;10.63;;;8.10;99.90;;;;;;4996604;28;20230;-60
2024/02/29 08:46:46;;;;;;;18.30;10.97;;;8.10;99.90;;;;;;4991809;28;20273;-60
2024/02/29 08:49:14;;;;;;;20.27;11.47;;;8.10;99.90;;;;;;4996482;28;20234;-61
2024/02/29 08:51:43;;;;;;;19.30;11.03;;;8.10;99.90;;;;;;4995950;28;20266;-60
2024/02/29 08:54:11;;;;;;;18.40;11.27;;;8.20;99.90;;;;;;4996142;28;20230;-61
2024/02/29 08:56:40;;;;;;;20.53;11.13;;;8.10;99.90;;;;;;4996798;28;20234;-60
2024/02/29 08:59:09;;;;;;;18.37;10.90;;;8.10;99.90;;;;;;4996980;28;20221;-60
2024/02/29 09:01:39;;;;;;;20.77;12.07;;;8.10;99.90;;;;;;4992532;28;20214;-60
2024/02/29 09:04:07;;;;;;;18.03;10.97;;;8.20;99.90;;;;;;5001164;28;20578;-60
2024/02/29 09:06:35;;;;;;;17.77;10.83;;;8.20;99.90;;;;;;4998522;28;20296;-61
2024/02/29 09:09:09;;;;;;;19.90;11.17;;;8.20;99.90;;;;;;4993031;28;20223;-61
2024/02/29 09:11:38;;;;;;;16.97;11.43;;;8.20;99.90;;;;;;4997369;28;20284;-61
2024/02/29 09:14:06;;;;;;;21.30;11.77;;;8.20;99.90;;;;;;4993126;28;20195;-61
2024/02/29 09:16:35;;;;;;;18.07;11.53;;;8.10;99.90;;;;;;4989241;28;20214;-60
2024/02/29 09:19:04;;;;;;;19.53;11.40;;;8.20;99.90;;;;;;4992914;28;20225;-60
2024/02/29 09:21:32;;;;;;;18.73;11.53;;;8.20;99.90;;;;;;4996822;28;20221;-60
2024/02/29 09:24:01;;;;;;;18.20;11.20;;;8.20;99.90;;;;;;4994704;28;20948;-61
2024/02/29 09:26:29;;;;;;;20.37;12.20;;;8.20;99.90;;;;;;4998220;28;20202;-60
2024/02/29 09:28:58;;;;;;;23.13;11.50;;;8.20;99.90;;;;;;4997429;28;20187;-60
2024/02/29 09:31:26;;;;;;;24.23;12.23;;;8.20;99.90;;;;;;4992831;28;20253;-61
2024/02/29 09:33:55;;;;;;;23.67;12.27;;;8.20;99.90;;;;;;4990637;28;20718;-60
2024/02/29 09:36:25;;;;;;;22.23;12.60;;;8.20;99.90;;;;;;5000511;28;20218;-61
2024/02/29 09:38:53;;;;;;;21.70;11.97;;;8.20;99.90;;;;;;4999043;28;20321;-61
2024/02/29 09:41:21;;;;;;;22.27;12.00;;;8.30;99.90;;;;;;4995165;28;20191;-60
2024/02/29 09:44:11;;;;;;;21.73;11.93;;;8.20;99.90;;;;;;4996756;28;20198;-60
2024/02/29 09:46:46;;;;;;;17.90;11.10;;;8.30;99.90;;;;;;4998110;28;20321;-60
2024/02/29 09:49:15;;;;;;;17.20;11.23;;;8.30;99.90;;;;;;4996583;28;20221;-60
2024/02/29 09:51:47;;;;;;;16.77;10.67;;;8.40;99.90;;;;;;4997885;28;20709;-61
2024/02/29 09:54:17;;;;;;;14.30;9.70;;;8.40;99.90;;;;;;5001138;28;20222;-61
2024/02/29 09:56:46;;;;;;;15.10;9.57;;;8.40;99.90;;;;;;4996450;28;20235;-61
2024/02/29 09:59:17;;;;;;;17.43;11.20;;;8.50;99.90;;;;;;5020281;28;20250;-60
2024/02/29 10:01:49;;;;;;;20.10;10.53;;;8.50;99.90;;;;;;4995463;28;20231;-61
2024/02/29 10:04:19;;;;;;;15.63;9.83;;;8.60;99.90;;;;;;4987187;28;20542;-61
2024/02/29 10:06:49;;;;;;;19.47;10.57;;;8.60;99.90;;;;;;4996809;28;20225;-61
2024/02/29 10:09:18;;;;;;;16.33;9.83;;;8.60;99.90;;;;;;4991654;28;20585;-61
2024/02/29 10:11:47;;;;;;;12.70;9.50;;;8.60;99.90;;;;;;4998532;28;20321;-61
2024/02/29 10:14:20;;;;;;;16.07;10.13;;;8.50;99.90;;;;;;4991352;28;20221;-60
2024/02/29 10:16:51;;;;;;;17.47;10.63;;;8.50;99.90;;;;;;4993558;28;20279;-60
2024/02/29 10:19:20;;;;;;;17.47;10.23;;;8.50;99.90;;;;;;4999479;28;20219;-60
2024/02/29 10:21:50;;;;;;;17.17;10.23;;;8.40;99.90;;;;;;4998409;28;20226;-61
2024/02/29 10:24:19;;;;;;;19.10;11.20;;;8.40;99.90;;;;;;4993884;28;20222;-60
2024/02/29 10:26:48;;;;;;;15.73;10.53;;;8.40;99.90;;;;;;4991507;28;20624;-60
2024/02/29 10:29:17;;;;;;;15.77;11.10;;;8.40;99.90;;;;;;4997252;28;20600;-61
2024/02/29 10:31:45;;;;;;;15.07;10.03;;;8.50;99.90;;;;;;4993691;28;20704;-60
2024/02/29 10:34:15;;;;;;;14.13;10.07;;;8.40;99.90;;;;;;4989694;28;20237;-60
2024/02/29 10:36:45;;;;;;;15.30;10.00;;;8.40;99.90;;;;;;4996130;28;20684;-61
2024/02/29 10:39:15;;;;;;;14.47;9.50;;;8.40;99.90;;;;;;4993752;28;20218;-60
2024/02/29 10:41:48;;;;;;;12.57;9.20;;;8.40;99.90;;;;;;5000677;28;20668;-61
2024/02/29 10:44:21;;;;;;;15.77;10.00;;;8.40;99.90;;;;;;5010750;28;20851;-60
2024/02/29 10:46:50;;;;;;;14.63;10.07;;;8.40;99.90;;;;;;5012140;28;20224;-60
2024/02/29 10:49:30;;;;;;;13.67;9.10;;;8.40;99.90;;;;;;5015529;28;20459;-60
2024/02/29 10:52:09;;;;;;;14.40;9.50;;;8.40;99.90;;;;;;5013609;28;20220;-61
2024/02/29 10:54:51;;;;;;;12.73;9.07;;;8.30;99.90;;;;;;5010978;28;20221;-60
2024/02/29 10:57:26;;;;;;;13.07;9.07;;;8.30;99.90;;;;;;5015089;28;20581;-61
2024/02/29 11:00:01;;;;;;;14.93;9.47;;;8.20;99.90;;;;;;5014177;28;20248;-60
2024/02/29 11:02:31;;;;;;;13.60;9.30;;;8.30;99.90;;;;;;5017374;28;20188;-60
2024/02/29 11:04:59;;;;;;;12.37;8.87;;;8.40;99.90;;;;;;5010852;28;20198;-61
2024/02/29 11:07:28;;;;;;;10.67;8.43;;;8.40;99.90;;;;;;5013191;28;20237;-61
2024/02/29 11:10:04;;;;;;;11.77;8.40;;;8.40;99.90;;;;;;5019963;28;20221;-60
2024/02/29 11:12:32;;;;;;;12.90;8.50;;;8.40;99.90;;;;;;5012634;28;20240;-61
2024/02/29 11:15:01;;;;;;;12.23;8.63;;;8.40;99.90;;;;;;5012578;28;20308;-61
2024/02/29 11:17:30;;;;;;;15.93;8.97;;;8.50;99.90;;;;;;5008930;28;20190;-60
2024/02/29 11:20:03;;;;;;;12.23;8.17;;;8.40;99.90;;;;;;4986747;28;20210;-60
2024/02/29 11:22:33;;;;;;;10.87;8.47;;;8.30;99.90;;;;;;4999279;28;20273;-60
2024/02/29 11:25:09;;;;;;;12.87;8.33;;;8.30;99.90;;;;;;4991530;28;20669;-60
2024/02/29 11:27:46;;;;;;;10.03;7.90;;;8.30;99.90;;;;;;4995410;28;20214;-59
2024/02/29 11:30:18;;;;;;;12.20;8.37;;;8.30;99.90;;;;;;4991951;28;20309;-59
2024/02/29 11:32:46;;;;;;;11.47;8.50;;;8.30;99.90;;;;;;4989764;28;20226;-60
2024/02/29 11:35:15;;;;;;;12.03;8.07;;;8.30;99.90;;;;;;4991562;28;20249;-60
2024/02/29 11:37:44;;;;;;;11.20;7.97;;;8.40;99.90;;;;;;4997431;28;20222;-60
2024/02/29 11:40:16;;;;;;;10.70;7.67;;;8.50;99.90;;;;;;4994358;28;20246;-60
2024/02/29 11:42:45;;;;;;;13.60;8.03;;;8.50;99.90;;;;;;4992249;28;20805;-60
2024/02/29 11:45:21;;;;;;;8.93;7.67;;;8.50;99.90;;;;;;4990121;28;20221;-59
2024/02/29 11:47:50;;;;;;;11.37;9.00;;;8.50;99.90;;;;;;4994612;28;20692;-60
2024/02/29 11:50:19;;;;;;;14.60;10.63;;;8.50;99.90;;;;;;4992132;28;20195;-60
2024/02/29 11:52:47;;;;;;;17.50;10.80;;;8.50;99.90;;;;;;4994023;28;21154;-60
2024/02/29 11:55:18;;;;;;;17.63;10.70;;;8.60;99.90;;;;;;4998566;28;20316;-60
2024/02/29 11:57:47;;;;;;;14.57;10.43;;;8.50;99.90;;;;;;4996325;28;20231;-59
2024/02/29 12:00:16;;;;;;;15.23;10.37;;;8.50;99.90;;;;;;4988688;28;20262;-60
2024/02/29 12:02:45;;;;;;;13.87;10.53;;;8.40;99.90;;;;;;5000974;28;20550;-60
2024/02/29 12:05:13;;;;;;;14.90;10.93;;;8.50;99.90;;;;;;5001437;28;20202;-60
2024/02/29 12:07:46;;;;;;;18.53;11.80;;;8.50;99.90;;;;;;4998952;28;20638;-60
2024/02/29 12:10:16;;;;;;;17.77;11.80;;;8.40;99.90;;;;;;4998403;28;20219;-60
2024/02/29 12:12:45;;;;;;;14.63;10.97;;;8.50;99.90;;;;;;4997534;28;20238;-59
2024/02/29 12:15:13;;;;;;;18.50;11.57;;;8.40;99.90;;;;;;4997800;28;20222;-59
2024/02/29 12:17:43;;;;;;;17.40;11.77;;;8.40;99.90;;;;;;4995198;28;20248;-59
2024/02/29 12:20:16;;;;;;;18.50;12.40;;;8.50;99.90;;;;;;4994833;28;20214;-59
2024/02/29 12:22:46;;;;;;;18.90;12.50;;;8.40;99.90;;;;;;4992368;28;20321;-59
2024/02/29 12:25:17;;;;;;;16.50;12.13;;;8.50;99.90;;;;;;4993235;28;20214;-60
2024/02/29 12:27:46;;;;;;;17.53;12.40;;;8.50;99.90;;;;;;4994055;28;20298;-60
2024/02/29 12:30:15;;;;;;;17.20;12.00;;;8.50;99.90;;;;;;4993228;28;20633;-60
2024/02/29 12:32:43;;;;;;;18.07;11.97;;;8.50;99.90;;;;;;4988647;28;20338;-60
2024/02/29 12:35:13;;;;;;;14.97;11.43;;;8.50;99.90;;;;;;4993515;28;20193;-60
2024/02/29 12:37:43;;;;;;;17.17;12.43;;;8.50;99.90;;;;;;5002051;28;20213;-60
2024/02/29 12:40:13;;;;;;;17.67;11.53;;;8.60;99.90;;;;;;5003278;28;20300;-60
2024/02/29 12:42:43;;;;;;;15.17;10.80;;;8.60;99.90;;;;;;4993404;28;20218;-60
2024/02/29 12:45:11;;;;;;;17.67;11.07;;;8.40;99.90;;;;;;4998112;28;20225;-60
2024/02/29 12:47:45;;;;;;;14.80;11.00;;;8.50;99.90;;;;;;4995473;28;20581;-60
2024/02/29 12:50:13;;;;;;;21.47;11.40;;;8.50;99.90;;;;;;4999699;28;20214;-60